SDR weather

Public forecast

Using degrees Celsius for public forecast. Weather courtesy of forecast.io.

Current aviation weather report (METAR) for Santander Airport

Retrieved 2020/08/14 19:00 UTC (9 minutes ago):

LEXJ 141900Z VRB02KT 9999 FEW021 BKN032 21/17 Q1016

Aviation forecast (TAF) for Santander Airport

Retrieved 2020/08/14 15:30 UTC (4 hours ago):

TAF LEXJ 141400Z 1415/1515 05012KT 9999 FEW025 SCT040 TX24/1513Z TN16/1504Z BECMG 1418/1420 VRB06KT BECMG 1512/1514 28010KT PROB30 TEMPO 1512/1515 34015G25KT RA SHRA SCT030TCU